ENNA METAR and TAF weather

Enter ICAO airport designator
Station Type Date Time Source
ENNA METAR 2020/03/31 11:50 UTC NOAA

ENNA 311150Z 16016KT 9000 3500S -SN BKN021 M04/M08 Q0987 RMK WIND 1800FT 16028KT


Station Type Date Time Source
ENNA Decoded METAR 2020/03/31 11:50 UTC NOAA

Banak, Norway (ENNA) 70-04N 024-59E 8M
Mar 31, 2020 - 07:50 AM EDT / 2020.03.31 1150 UTC
Wind: from the SSE (160 degrees) at 18 MPH (16 KT):0
Visibility: 5 mile(s):0
Sky conditions: mostly cloudy
Weather: light snow
Temperature: 24 F (-4 C)
Windchill: 10 F (-12 C):1
Dew Point: 17 F (-8 C)
Relative Humidity: 73%
Pressure (altimeter): 29.15 in. Hg (0987 hPa)
ob: ENNA 311150Z 16016KT 9000 3500S -SN BKN021 M04/M08 Q0987 RMK WIND 1800FT 16028KT
cycle: 12

Station Type Date Time Source
ENNA TAF 2020/03/31 12:58 UTC NOAA

TAF ENNA 311100Z 3112/0112 18009KT 9999 -SN FEW020 BKN030
TEMPO 3112/3121 1000 SN BLSN VV008
BECMG 3121/3123 35010KT
TEMPO 3121/0106 2000 SHSN BKN009

Example: see airport list